sensor_id;sensor_type;location;lat;lon;timestamp;P1;durP1;ratioP1;P2;durP2;ratioP2
4521;SDS011;2273;48.464;11.926;2023-09-18T00:02:06;8.90;;;7.47;;
4521;SDS011;2273;48.464;11.926;2023-09-18T00:04:32;10.13;;;7.50;;
4521;SDS011;2273;48.464;11.926;2023-09-18T00:06:59;8.80;;;6.67;;
4521;SDS011;2273;48.464;11.926;2023-09-18T00:09:24;8.50;;;7.07;;
4521;SDS011;2273;48.464;11.926;2023-09-18T00:11:50;9.60;;;6.83;;
4521;SDS011;2273;48.464;11.926;2023-09-18T00:14:15;9.43;;;7.20;;
4521;SDS011;2273;48.464;11.926;2023-09-18T00:16:41;8.80;;;7.30;;
4521;SDS011;2273;48.464;11.926;2023-09-18T00:19:06;10.07;;;6.50;;
4521;SDS011;2273;48.464;11.926;2023-09-18T00:21:33;9.87;;;6.30;;
4521;SDS011;2273;48.464;11.926;2023-09-18T00:23:59;9.23;;;6.73;;
4521;SDS011;2273;48.464;11.926;2023-09-18T00:26:25;8.70;;;6.67;;
4521;SDS011;2273;48.464;11.926;2023-09-18T00:28:52;8.53;;;6.80;;
4521;SDS011;2273;48.464;11.926;2023-09-18T00:31:18;8.70;;;6.93;;
4521;SDS011;2273;48.464;11.926;2023-09-18T00:33:44;9.00;;;7.17;;
4521;SDS011;2273;48.464;11.926;2023-09-18T00:36:09;7.80;;;6.53;;
4521;SDS011;2273;48.464;11.926;2023-09-18T00:38:35;8.10;;;6.67;;
4521;SDS011;2273;48.464;11.926;2023-09-18T00:41:01;11.60;;;7.13;;
4521;SDS011;2273;48.464;11.926;2023-09-18T00:43:26;9.40;;;7.73;;
4521;SDS011;2273;48.464;11.926;2023-09-18T00:45:51;11.10;;;7.30;;
4521;SDS011;2273;48.464;11.926;2023-09-18T00:48:18;9.70;;;8.07;;
4521;SDS011;2273;48.464;11.926;2023-09-18T00:50:43;9.73;;;7.17;;
4521;SDS011;2273;48.464;11.926;2023-09-18T00:53:09;11.90;;;8.67;;
4521;SDS011;2273;48.464;11.926;2023-09-18T00:55:39;8.43;;;7.03;;
4521;SDS011;2273;48.464;11.926;2023-09-18T00:58:05;14.10;;;7.53;;
4521;SDS011;2273;48.464;11.926;2023-09-18T01:00:31;8.57;;;7.00;;
4521;SDS011;2273;48.464;11.926;2023-09-18T01:02:57;13.30;;;6.90;;
4521;SDS011;2273;48.464;11.926;2023-09-18T01:05:22;10.30;;;7.43;;
4521;SDS011;2273;48.464;11.926;2023-09-18T01:07:48;10.27;;;7.40;;
4521;SDS011;2273;48.464;11.926;2023-09-18T01:10:14;9.23;;;7.07;;
4521;SDS011;2273;48.464;11.926;2023-09-18T01:15:26;9.10;;;7.33;;
4521;SDS011;2273;48.464;11.926;2023-09-18T01:17:53;10.30;;;8.03;;
4521;SDS011;2273;48.464;11.926;2023-09-18T01:20:19;11.20;;;8.00;;
4521;SDS011;2273;48.464;11.926;2023-09-18T01:22:45;8.50;;;6.70;;
4521;SDS011;2273;48.464;11.926;2023-09-18T01:25:10;12.20;;;8.03;;
4521;SDS011;2273;48.464;11.926;2023-09-18T01:27:36;9.03;;;6.77;;
4521;SDS011;2273;48.464;11.926;2023-09-18T01:30:01;11.90;;;7.70;;
4521;SDS011;2273;48.464;11.926;2023-09-18T01:32:27;10.80;;;8.80;;
4521;SDS011;2273;48.464;11.926;2023-09-18T01:34:56;10.60;;;7.40;;
4521;SDS011;2273;48.464;11.926;2023-09-18T01:37:23;9.43;;;7.77;;
4521;SDS011;2273;48.464;11.926;2023-09-18T01:39:51;9.90;;;7.90;;
4521;SDS011;2273;48.464;11.926;2023-09-18T01:42:17;9.20;;;7.63;;
4521;SDS011;2273;48.464;11.926;2023-09-18T01:44:43;11.27;;;7.53;;
4521;SDS011;2273;48.464;11.926;2023-09-18T01:47:10;12.27;;;7.40;;
4521;SDS011;2273;48.464;11.926;2023-09-18T01:49:38;11.17;;;8.40;;
4521;SDS011;2273;48.464;11.926;2023-09-18T01:52:06;9.80;;;7.67;;
4521;SDS011;2273;48.464;11.926;2023-09-18T01:54:33;16.60;;;8.47;;
4521;SDS011;2273;48.464;11.926;2023-09-18T01:56:59;8.17;;;6.97;;
4521;SDS011;2273;48.464;11.926;2023-09-18T01:59:24;9.37;;;7.33;;
4521;SDS011;2273;48.464;11.926;2023-09-18T02:01:51;9.80;;;7.00;;
4521;SDS011;2273;48.464;11.926;2023-09-18T02:04:17;9.00;;;7.63;;
4521;SDS011;2273;48.464;11.926;2023-09-18T02:06:44;9.73;;;7.97;;
4521;SDS011;2273;48.464;11.926;2023-09-18T02:09:11;12.33;;;8.73;;
4521;SDS011;2273;48.464;11.926;2023-09-18T02:11:37;13.50;;;7.77;;
4521;SDS011;2273;48.464;11.926;2023-09-18T02:14:06;11.97;;;7.70;;
4521;SDS011;2273;48.464;11.926;2023-09-18T02:16:38;11.20;;;7.87;;
4521;SDS011;2273;48.464;11.926;2023-09-18T02:19:11;13.93;;;7.70;;
4521;SDS011;2273;48.464;11.926;2023-09-18T02:21:38;9.90;;;7.13;;
4521;SDS011;2273;48.464;11.926;2023-09-18T02:24:04;8.80;;;7.43;;
4521;SDS011;2273;48.464;11.926;2023-09-18T02:26:30;10.07;;;7.03;;
4521;SDS011;2273;48.464;11.926;2023-09-18T02:28:58;9.23;;;7.63;;
4521;SDS011;2273;48.464;11.926;2023-09-18T02:31:24;9.37;;;7.23;;
4521;SDS011;2273;48.464;11.926;2023-09-18T02:33:50;10.87;;;8.50;;
4521;SDS011;2273;48.464;11.926;2023-09-18T02:36:15;10.60;;;8.10;;
4521;SDS011;2273;48.464;11.926;2023-09-18T02:38:41;13.90;;;7.83;;
4521;SDS011;2273;48.464;11.926;2023-09-18T02:41:06;8.47;;;6.53;;
4521;SDS011;2273;48.464;11.926;2023-09-18T02:43:32;11.20;;;6.47;;
4521;SDS011;2273;48.464;11.926;2023-09-18T02:45:57;10.23;;;6.23;;
4521;SDS011;2273;48.464;11.926;2023-09-18T02:48:23;7.97;;;6.07;;
4521;SDS011;2273;48.464;11.926;2023-09-18T02:50:49;9.07;;;6.83;;
4521;SDS011;2273;48.464;11.926;2023-09-18T02:53:19;9.80;;;7.63;;
4521;SDS011;2273;48.464;11.926;2023-09-18T02:55:49;12.47;;;7.90;;
4521;SDS011;2273;48.464;11.926;2023-09-18T02:58:15;10.63;;;7.50;;
4521;SDS011;2273;48.464;11.926;2023-09-18T03:00:42;13.83;;;7.80;;
4521;SDS011;2273;48.464;11.926;2023-09-18T03:03:09;11.57;;;7.70;;
4521;SDS011;2273;48.464;11.926;2023-09-18T03:05:35;14.03;;;9.20;;
4521;SDS011;2273;48.464;11.926;2023-09-18T03:08:01;10.30;;;8.30;;
4521;SDS011;2273;48.464;11.926;2023-09-18T03:10:27;14.33;;;10.27;;
4521;SDS011;2273;48.464;11.926;2023-09-18T03:12:53;15.40;;;8.80;;
4521;SDS011;2273;48.464;11.926;2023-09-18T03:15:18;15.30;;;9.63;;
4521;SDS011;2273;48.464;11.926;2023-09-18T03:17:44;15.17;;;10.10;;
4521;SDS011;2273;48.464;11.926;2023-09-18T03:20:10;10.83;;;8.87;;
4521;SDS011;2273;48.464;11.926;2023-09-18T03:22:35;13.03;;;10.07;;
4521;SDS011;2273;48.464;11.926;2023-09-18T03:25:01;12.90;;;9.37;;
4521;SDS011;2273;48.464;11.926;2023-09-18T03:27:27;16.50;;;10.87;;
4521;SDS011;2273;48.464;11.926;2023-09-18T03:29:55;18.60;;;10.07;;
4521;SDS011;2273;48.464;11.926;2023-09-18T03:32:20;13.57;;;9.23;;
4521;SDS011;2273;48.464;11.926;2023-09-18T03:34:46;15.90;;;9.30;;
4521;SDS011;2273;48.464;11.926;2023-09-18T03:37:12;15.70;;;9.70;;
4521;SDS011;2273;48.464;11.926;2023-09-18T03:39:37;15.70;;;10.00;;
4521;SDS011;2273;48.464;11.926;2023-09-18T03:42:03;13.60;;;10.20;;
4521;SDS011;2273;48.464;11.926;2023-09-18T03:44:28;15.60;;;9.90;;
4521;SDS011;2273;48.464;11.926;2023-09-18T03:46:54;11.60;;;8.43;;
4521;SDS011;2273;48.464;11.926;2023-09-18T03:49:19;16.40;;;9.37;;
4521;SDS011;2273;48.464;11.926;2023-09-18T03:51:45;14.63;;;10.37;;
4521;SDS011;2273;48.464;11.926;2023-09-18T03:54:11;11.40;;;9.00;;
4521;SDS011;2273;48.464;11.926;2023-09-18T03:56:36;10.50;;;8.17;;
4521;SDS011;2273;48.464;11.926;2023-09-18T03:59:02;14.70;;;9.73;;
4521;SDS011;2273;48.464;11.926;2023-09-18T04:01:29;12.07;;;9.43;;
4521;SDS011;2273;48.464;11.926;2023-09-18T04:03:55;16.47;;;11.10;;
4521;SDS011;2273;48.464;11.926;2023-09-18T04:06:21;13.70;;;10.60;;
4521;SDS011;2273;48.464;11.926;2023-09-18T04:08:46;15.13;;;11.43;;
4521;SDS011;2273;48.464;11.926;2023-09-18T04:11:12;18.03;;;12.70;;
4521;SDS011;2273;48.464;11.926;2023-09-18T04:13:37;17.77;;;10.77;;
4521;SDS011;2273;48.464;11.926;2023-09-18T04:16:03;19.80;;;10.10;;
4521;SDS011;2273;48.464;11.926;2023-09-18T04:18:29;15.10;;;11.43;;
4521;SDS011;2273;48.464;11.926;2023-09-18T04:20:55;15.63;;;10.87;;
4521;SDS011;2273;48.464;11.926;2023-09-18T04:23:21;15.63;;;9.67;;
4521;SDS011;2273;48.464;11.926;2023-09-18T04:25:48;15.70;;;10.47;;
4521;SDS011;2273;48.464;11.926;2023-09-18T04:28:14;14.43;;;9.77;;
4521;SDS011;2273;48.464;11.926;2023-09-18T04:30:40;12.73;;;9.97;;
4521;SDS011;2273;48.464;11.926;2023-09-18T04:33:06;13.90;;;10.83;;
4521;SDS011;2273;48.464;11.926;2023-09-18T04:35:31;16.97;;;11.40;;
4521;SDS011;2273;48.464;11.926;2023-09-18T04:37:58;13.10;;;10.50;;
4521;SDS011;2273;48.464;11.926;2023-09-18T04:40:24;14.43;;;10.63;;
4521;SDS011;2273;48.464;11.926;2023-09-18T04:42:51;16.70;;;11.17;;
4521;SDS011;2273;48.464;11.926;2023-09-18T04:45:18;15.33;;;11.03;;
4521;SDS011;2273;48.464;11.926;2023-09-18T04:47:43;14.17;;;11.27;;
4521;SDS011;2273;48.464;11.926;2023-09-18T04:50:09;15.37;;;11.23;;
4521;SDS011;2273;48.464;11.926;2023-09-18T04:52:36;14.90;;;11.30;;
4521;SDS011;2273;48.464;11.926;2023-09-18T04:55:01;12.67;;;9.60;;
4521;SDS011;2273;48.464;11.926;2023-09-18T04:57:28;15.73;;;10.17;;
4521;SDS011;2273;48.464;11.926;2023-09-18T04:59:54;12.97;;;10.80;;
4521;SDS011;2273;48.464;11.926;2023-09-18T05:02:19;15.50;;;11.17;;
4521;SDS011;2273;48.464;11.926;2023-09-18T05:04:44;14.40;;;10.63;;
4521;SDS011;2273;48.464;11.926;2023-09-18T05:07:10;11.80;;;9.73;;
4521;SDS011;2273;48.464;11.926;2023-09-18T05:09:35;13.40;;;10.80;;
4521;SDS011;2273;48.464;11.926;2023-09-18T05:12:04;14.77;;;10.60;;
4521;SDS011;2273;48.464;11.926;2023-09-18T05:14:33;15.30;;;10.07;;
4521;SDS011;2273;48.464;11.926;2023-09-18T05:16:59;18.17;;;10.30;;
4521;SDS011;2273;48.464;11.926;2023-09-18T05:19:25;12.40;;;9.77;;
4521;SDS011;2273;48.464;11.926;2023-09-18T05:21:50;14.27;;;10.30;;
4521;SDS011;2273;48.464;11.926;2023-09-18T05:24:16;13.23;;;10.50;;
4521;SDS011;2273;48.464;11.926;2023-09-18T05:26:41;20.87;;;9.90;;
4521;SDS011;2273;48.464;11.926;2023-09-18T05:29:06;13.80;;;10.10;;
4521;SDS011;2273;48.464;11.926;2023-09-18T05:31:32;13.50;;;9.00;;
4521;SDS011;2273;48.464;11.926;2023-09-18T05:33:58;19.77;;;9.80;;
4521;SDS011;2273;48.464;11.926;2023-09-18T05:36:23;18.00;;;10.90;;
4521;SDS011;2273;48.464;11.926;2023-09-18T05:38:49;17.57;;;10.73;;
4521;SDS011;2273;48.464;11.926;2023-09-18T05:41:14;20.83;;;9.67;;
4521;SDS011;2273;48.464;11.926;2023-09-18T05:43:40;16.70;;;11.13;;
4521;SDS011;2273;48.464;11.926;2023-09-18T05:46:06;16.83;;;9.90;;
4521;SDS011;2273;48.464;11.926;2023-09-18T05:48:31;18.43;;;10.70;;
4521;SDS011;2273;48.464;11.926;2023-09-18T05:50:56;12.90;;;10.10;;
4521;SDS011;2273;48.464;11.926;2023-09-18T05:53:22;14.50;;;8.90;;
4521;SDS011;2273;48.464;11.926;2023-09-18T05:55:47;13.17;;;10.47;;
4521;SDS011;2273;48.464;11.926;2023-09-18T05:58:13;15.13;;;10.60;;
4521;SDS011;2273;48.464;11.926;2023-09-18T06:00:39;22.93;;;9.43;;
4521;SDS011;2273;48.464;11.926;2023-09-18T06:03:04;19.47;;;9.70;;
4521;SDS011;2273;48.464;11.926;2023-09-18T06:05:31;18.00;;;10.73;;
4521;SDS011;2273;48.464;11.926;2023-09-18T06:07:59;14.93;;;9.07;;
4521;SDS011;2273;48.464;11.926;2023-09-18T06:10:24;12.00;;;9.83;;
4521;SDS011;2273;48.464;11.926;2023-09-18T06:12:50;10.37;;;8.77;;
4521;SDS011;2273;48.464;11.926;2023-09-18T06:15:15;26.43;;;9.67;;
4521;SDS011;2273;48.464;11.926;2023-09-18T06:17:42;12.47;;;8.90;;
4521;SDS011;2273;48.464;11.926;2023-09-18T06:20:08;11.37;;;8.40;;
4521;SDS011;2273;48.464;11.926;2023-09-18T06:22:35;17.30;;;9.27;;
4521;SDS011;2273;48.464;11.926;2023-09-18T06:25:02;11.30;;;9.10;;
4521;SDS011;2273;48.464;11.926;2023-09-18T06:27:27;13.00;;;9.73;;
4521;SDS011;2273;48.464;11.926;2023-09-18T06:29:52;15.13;;;8.87;;
4521;SDS011;2273;48.464;11.926;2023-09-18T06:32:18;13.13;;;8.73;;
4521;SDS011;2273;48.464;11.926;2023-09-18T06:34:43;20.20;;;9.07;;
4521;SDS011;2273;48.464;11.926;2023-09-18T06:37:09;10.80;;;8.50;;
4521;SDS011;2273;48.464;11.926;2023-09-18T06:39:37;12.17;;;8.43;;
4521;SDS011;2273;48.464;11.926;2023-09-18T06:42:03;11.50;;;8.17;;
4521;SDS011;2273;48.464;11.926;2023-09-18T06:44:29;15.60;;;8.43;;
4521;SDS011;2273;48.464;11.926;2023-09-18T06:46:55;11.30;;;8.00;;
4521;SDS011;2273;48.464;11.926;2023-09-18T06:49:20;10.50;;;7.90;;
4521;SDS011;2273;48.464;11.926;2023-09-18T06:51:45;15.80;;;8.40;;
4521;SDS011;2273;48.464;11.926;2023-09-18T06:54:11;11.53;;;8.03;;
4521;SDS011;2273;48.464;11.926;2023-09-18T06:56:36;10.00;;;7.50;;
4521;SDS011;2273;48.464;11.926;2023-09-18T06:59:02;18.00;;;7.50;;
4521;SDS011;2273;48.464;11.926;2023-09-18T07:01:27;9.63;;;7.40;;
4521;SDS011;2273;48.464;11.926;2023-09-18T07:03:53;12.87;;;8.70;;
4521;SDS011;2273;48.464;11.926;2023-09-18T07:06:18;9.90;;;7.83;;
4521;SDS011;2273;48.464;11.926;2023-09-18T07:08:45;11.63;;;7.87;;
4521;SDS011;2273;48.464;11.926;2023-09-18T07:11:12;11.50;;;8.00;;
4521;SDS011;2273;48.464;11.926;2023-09-18T07:13:38;19.53;;;8.60;;
4521;SDS011;2273;48.464;11.926;2023-09-18T07:16:03;11.67;;;8.73;;
4521;SDS011;2273;48.464;11.926;2023-09-18T07:18:29;15.30;;;8.80;;
4521;SDS011;2273;48.464;11.926;2023-09-18T07:20:54;12.30;;;8.47;;
4521;SDS011;2273;48.464;11.926;2023-09-18T07:23:19;11.13;;;8.20;;
4521;SDS011;2273;48.464;11.926;2023-09-18T07:25:47;12.67;;;8.37;;
4521;SDS011;2273;48.464;11.926;2023-09-18T07:28:12;12.90;;;8.20;;
4521;SDS011;2273;48.464;11.926;2023-09-18T07:30:42;10.37;;;7.73;;
4521;SDS011;2273;48.464;11.926;2023-09-18T07:33:09;10.87;;;8.27;;
4521;SDS011;2273;48.464;11.926;2023-09-18T07:35:35;10.63;;;7.50;;
4521;SDS011;2273;48.464;11.926;2023-09-18T07:38:00;10.40;;;7.13;;
4521;SDS011;2273;48.464;11.926;2023-09-18T07:40:26;8.90;;;6.73;;
4521;SDS011;2273;48.464;11.926;2023-09-18T07:42:51;11.60;;;7.37;;
4521;SDS011;2273;48.464;11.926;2023-09-18T07:45:17;12.00;;;6.93;;
4521;SDS011;2273;48.464;11.926;2023-09-18T07:47:43;9.17;;;6.93;;
4521;SDS011;2273;48.464;11.926;2023-09-18T07:50:09;10.90;;;6.97;;
4521;SDS011;2273;48.464;11.926;2023-09-18T07:52:35;9.40;;;6.73;;
4521;SDS011;2273;48.464;11.926;2023-09-18T07:55:00;10.97;;;6.00;;
4521;SDS011;2273;48.464;11.926;2023-09-18T07:57:26;19.63;;;7.03;;
4521;SDS011;2273;48.464;11.926;2023-09-18T07:59:57;10.80;;;5.80;;
4521;SDS011;2273;48.464;11.926;2023-09-18T08:02:23;8.00;;;6.03;;
4521;SDS011;2273;48.464;11.926;2023-09-18T08:04:49;11.67;;;6.10;;
4521;SDS011;2273;48.464;11.926;2023-09-18T08:07:15;8.30;;;6.10;;
4521;SDS011;2273;48.464;11.926;2023-09-18T08:09:41;10.53;;;6.20;;
4521;SDS011;2273;48.464;11.926;2023-09-18T08:12:07;8.43;;;6.23;;
4521;SDS011;2273;48.464;11.926;2023-09-18T08:14:34;8.07;;;6.23;;
4521;SDS011;2273;48.464;11.926;2023-09-18T08:17:01;10.23;;;6.17;;
4521;SDS011;2273;48.464;11.926;2023-09-18T08:19:28;7.33;;;5.80;;
4521;SDS011;2273;48.464;11.926;2023-09-18T08:21:53;8.13;;;6.03;;
4521;SDS011;2273;48.464;11.926;2023-09-18T08:24:20;7.70;;;5.70;;
4521;SDS011;2273;48.464;11.926;2023-09-18T08:26:46;18.07;;;6.67;;
4521;SDS011;2273;48.464;11.926;2023-09-18T08:29:11;12.07;;;6.57;;
4521;SDS011;2273;48.464;11.926;2023-09-18T08:31:37;10.67;;;6.50;;
4521;SDS011;2273;48.464;11.926;2023-09-18T08:34:02;11.83;;;6.10;;
4521;SDS011;2273;48.464;11.926;2023-09-18T08:36:27;9.67;;;6.83;;
4521;SDS011;2273;48.464;11.926;2023-09-18T08:38:55;13.67;;;6.17;;
4521;SDS011;2273;48.464;11.926;2023-09-18T08:41:21;7.60;;;6.00;;
4521;SDS011;2273;48.464;11.926;2023-09-18T08:43:50;10.57;;;6.43;;
4521;SDS011;2273;48.464;11.926;2023-09-18T08:46:17;11.40;;;5.90;;
4521;SDS011;2273;48.464;11.926;2023-09-18T08:48:43;10.97;;;5.93;;
4521;SDS011;2273;48.464;11.926;2023-09-18T08:51:09;11.80;;;6.70;;
4521;SDS011;2273;48.464;11.926;2023-09-18T08:53:35;11.67;;;7.10;;
4521;SDS011;2273;48.464;11.926;2023-09-18T08:56:03;10.50;;;6.23;;
4521;SDS011;2273;48.464;11.926;2023-09-18T08:58:31;12.70;;;6.60;;
4521;SDS011;2273;48.464;11.926;2023-09-18T09:01:00;14.00;;;6.07;;
4521;SDS011;2273;48.464;11.926;2023-09-18T09:03:28;13.80;;;6.50;;
4521;SDS011;2273;48.464;11.926;2023-09-18T09:05:54;8.90;;;6.10;;
4521;SDS011;2273;48.464;11.926;2023-09-18T09:08:20;7.90;;;5.90;;
4521;SDS011;2273;48.464;11.926;2023-09-18T09:10:46;11.27;;;7.40;;
4521;SDS011;2273;48.464;11.926;2023-09-18T09:13:11;12.00;;;6.93;;
4521;SDS011;2273;48.464;11.926;2023-09-18T09:15:45;11.33;;;6.80;;
4521;SDS011;2273;48.464;11.926;2023-09-18T09:18:12;10.23;;;6.87;;
4521;SDS011;2273;48.464;11.926;2023-09-18T09:20:37;15.73;;;6.30;;
4521;SDS011;2273;48.464;11.926;2023-09-18T09:23:05;13.10;;;7.20;;
4521;SDS011;2273;48.464;11.926;2023-09-18T09:25:33;11.60;;;6.23;;
4521;SDS011;2273;48.464;11.926;2023-09-18T09:27:59;10.03;;;6.70;;
4521;SDS011;2273;48.464;11.926;2023-09-18T09:30:30;13.97;;;6.33;;
4521;SDS011;2273;48.464;11.926;2023-09-18T09:32:56;17.60;;;6.63;;
4521;SDS011;2273;48.464;11.926;2023-09-18T09:35:26;15.57;;;5.90;;
4521;SDS011;2273;48.464;11.926;2023-09-18T09:37:54;10.40;;;6.30;;
4521;SDS011;2273;48.464;11.926;2023-09-18T09:40:22;10.50;;;6.40;;
4521;SDS011;2273;48.464;11.926;2023-09-18T09:42:48;10.67;;;5.83;;
4521;SDS011;2273;48.464;11.926;2023-09-18T09:45:16;8.97;;;5.90;;
4521;SDS011;2273;48.464;11.926;2023-09-18T09:47:42;15.87;;;5.70;;
4521;SDS011;2273;48.464;11.926;2023-09-18T09:50:12;11.30;;;6.57;;
4521;SDS011;2273;48.464;11.926;2023-09-18T09:52:47;15.90;;;6.43;;
4521;SDS011;2273;48.464;11.926;2023-09-18T09:55:21;12.80;;;5.40;;
4521;SDS011;2273;48.464;11.926;2023-09-18T09:57:50;14.17;;;5.40;;
4521;SDS011;2273;48.464;11.926;2023-09-18T10:00:17;18.83;;;6.40;;
4521;SDS011;2273;48.464;11.926;2023-09-18T10:03:01;12.27;;;6.40;;
4521;SDS011;2273;48.464;11.926;2023-09-18T10:05:34;15.40;;;5.57;;
4521;SDS011;2273;48.464;11.926;2023-09-18T10:10:44;11.87;;;5.63;;
4521;SDS011;2273;48.464;11.926;2023-09-18T10:13:15;10.83;;;5.10;;
4521;SDS011;2273;48.464;11.926;2023-09-18T10:15:44;10.37;;;5.10;;
4521;SDS011;2273;48.464;11.926;2023-09-18T10:21:14;8.50;;;5.40;;
4521;SDS011;2273;48.464;11.926;2023-09-18T10:27:01;16.10;;;5.60;;
4521;SDS011;2273;48.464;11.926;2023-09-18T10:29:29;14.27;;;4.90;;
4521;SDS011;2273;48.464;11.926;2023-09-18T10:31:56;14.50;;;4.87;;
4521;SDS011;2273;48.464;11.926;2023-09-18T10:34:22;13.83;;;5.13;;
4521;SDS011;2273;48.464;11.926;2023-09-18T10:36:49;13.63;;;4.50;;
4521;SDS011;2273;48.464;11.926;2023-09-18T10:39:16;11.23;;;4.33;;
4521;SDS011;2273;48.464;11.926;2023-09-18T10:41:54;11.40;;;4.77;;
4521;SDS011;2273;48.464;11.926;2023-09-18T10:44:20;11.67;;;3.90;;
4521;SDS011;2273;48.464;11.926;2023-09-18T10:46:46;17.33;;;5.30;;
4521;SDS011;2273;48.464;11.926;2023-09-18T10:49:19;12.20;;;4.50;;
4521;SDS011;2273;48.464;11.926;2023-09-18T10:51:48;14.67;;;4.97;;
4521;SDS011;2273;48.464;11.926;2023-09-18T10:54:20;15.40;;;5.00;;
4521;SDS011;2273;48.464;11.926;2023-09-18T10:56:46;13.47;;;4.93;;
4521;SDS011;2273;48.464;11.926;2023-09-18T10:59:13;9.90;;;4.47;;
4521;SDS011;2273;48.464;11.926;2023-09-18T11:01:39;13.47;;;4.70;;
4521;SDS011;2273;48.464;11.926;2023-09-18T11:04:05;12.53;;;4.67;;
4521;SDS011;2273;48.464;11.926;2023-09-18T11:09:21;10.87;;;4.90;;
4521;SDS011;2273;48.464;11.926;2023-09-18T11:15:10;11.50;;;4.67;;
4521;SDS011;2273;48.464;11.926;2023-09-18T11:20:01;14.70;;;4.70;;
4521;SDS011;2273;48.464;11.926;2023-09-18T11:25:41;12.50;;;4.30;;
4521;SDS011;2273;48.464;11.926;2023-09-18T11:28:07;11.23;;;4.57;;
4521;SDS011;2273;48.464;11.926;2023-09-18T11:30:37;7.93;;;4.20;;
4521;SDS011;2273;48.464;11.926;2023-09-18T11:33:05;14.97;;;4.50;;
4521;SDS011;2273;48.464;11.926;2023-09-18T11:35:34;9.77;;;4.80;;
4521;SDS011;2273;48.464;11.926;2023-09-18T11:38:10;10.97;;;5.00;;
4521;SDS011;2273;48.464;11.926;2023-09-18T11:40:37;13.00;;;4.40;;
4521;SDS011;2273;48.464;11.926;2023-09-18T11:45:51;8.50;;;4.57;;
4521;SDS011;2273;48.464;11.926;2023-09-18T11:48:24;9.00;;;4.90;;
4521;SDS011;2273;48.464;11.926;2023-09-18T11:50:50;12.40;;;4.73;;
4521;SDS011;2273;48.464;11.926;2023-09-18T11:53:17;10.73;;;4.17;;
4521;SDS011;2273;48.464;11.926;2023-09-18T11:55:44;11.30;;;4.20;;
4521;SDS011;2273;48.464;11.926;2023-09-18T11:58:09;11.70;;;4.37;;
4521;SDS011;2273;48.464;11.926;2023-09-18T12:00:35;19.27;;;5.10;;
4521;SDS011;2273;48.464;11.926;2023-09-18T12:03:20;8.43;;;4.10;;
4521;SDS011;2273;48.464;11.926;2023-09-18T12:06:11;12.93;;;4.50;;
4521;SDS011;2273;48.464;11.926;2023-09-18T12:08:38;10.83;;;3.50;;
4521;SDS011;2273;48.464;11.926;2023-09-18T12:11:05;14.83;;;4.10;;
4521;SDS011;2273;48.464;11.926;2023-09-18T12:13:31;7.63;;;3.80;;
4521;SDS011;2273;48.464;11.926;2023-09-18T12:15:57;10.87;;;3.60;;
4521;SDS011;2273;48.464;11.926;2023-09-18T12:18:24;13.40;;;4.23;;
4521;SDS011;2273;48.464;11.926;2023-09-18T12:20:50;9.17;;;3.90;;
4521;SDS011;2273;48.464;11.926;2023-09-18T12:23:16;10.43;;;2.70;;
4521;SDS011;2273;48.464;11.926;2023-09-18T12:25:47;13.77;;;3.57;;
4521;SDS011;2273;48.464;11.926;2023-09-18T12:28:15;9.87;;;2.93;;
4521;SDS011;2273;48.464;11.926;2023-09-18T12:30:43;7.03;;;2.37;;
4521;SDS011;2273;48.464;11.926;2023-09-18T12:33:11;9.80;;;3.03;;
4521;SDS011;2273;48.464;11.926;2023-09-18T12:35:37;18.73;;;3.07;;
4521;SDS011;2273;48.464;11.926;2023-09-18T12:38:03;14.63;;;2.70;;
4521;SDS011;2273;48.464;11.926;2023-09-18T12:40:38;12.00;;;2.90;;
4521;SDS011;2273;48.464;11.926;2023-09-18T12:43:04;10.53;;;2.37;;
4521;SDS011;2273;48.464;11.926;2023-09-18T12:45:31;15.90;;;2.50;;
4521;SDS011;2273;48.464;11.926;2023-09-18T12:47:57;12.60;;;2.20;;
4521;SDS011;2273;48.464;11.926;2023-09-18T12:50:23;10.33;;;2.40;;
4521;SDS011;2273;48.464;11.926;2023-09-18T12:52:49;8.97;;;2.53;;
4521;SDS011;2273;48.464;11.926;2023-09-18T12:55:24;11.70;;;2.63;;
4521;SDS011;2273;48.464;11.926;2023-09-18T12:57:53;13.30;;;2.33;;
4521;SDS011;2273;48.464;11.926;2023-09-18T13:00:19;17.43;;;2.37;;
4521;SDS011;2273;48.464;11.926;2023-09-18T13:02:48;12.23;;;2.90;;
4521;SDS011;2273;48.464;11.926;2023-09-18T13:05:19;17.07;;;3.23;;
4521;SDS011;2273;48.464;11.926;2023-09-18T13:07:46;8.90;;;2.40;;
4521;SDS011;2273;48.464;11.926;2023-09-18T13:10:12;5.20;;;2.23;;
4521;SDS011;2273;48.464;11.926;2023-09-18T13:12:45;12.33;;;2.00;;
4521;SDS011;2273;48.464;11.926;2023-09-18T13:15:12;9.73;;;2.33;;
4521;SDS011;2273;48.464;11.926;2023-09-18T13:17:42;11.17;;;2.37;;
4521;SDS011;2273;48.464;11.926;2023-09-18T13:20:16;6.27;;;2.00;;
4521;SDS011;2273;48.464;11.926;2023-09-18T13:22:54;4.80;;;2.00;;
4521;SDS011;2273;48.464;11.926;2023-09-18T13:25:21;6.20;;;1.90;;
4521;SDS011;2273;48.464;11.926;2023-09-18T13:27:48;6.90;;;2.10;;
4521;SDS011;2273;48.464;11.926;2023-09-18T13:30:14;8.63;;;2.03;;
4521;SDS011;2273;48.464;11.926;2023-09-18T13:32:42;4.27;;;1.73;;
4521;SDS011;2273;48.464;11.926;2023-09-18T13:35:09;13.43;;;2.00;;
4521;SDS011;2273;48.464;11.926;2023-09-18T13:37:36;4.80;;;1.83;;
4521;SDS011;2273;48.464;11.926;2023-09-18T13:40:03;7.90;;;2.30;;
4521;SDS011;2273;48.464;11.926;2023-09-18T13:42:32;5.27;;;1.93;;
4521;SDS011;2273;48.464;11.926;2023-09-18T13:44:58;6.03;;;2.00;;
4521;SDS011;2273;48.464;11.926;2023-09-18T13:47:27;7.20;;;2.00;;
4521;SDS011;2273;48.464;11.926;2023-09-18T13:49:53;12.03;;;2.20;;
4521;SDS011;2273;48.464;11.926;2023-09-18T13:52:18;8.37;;;2.43;;
4521;SDS011;2273;48.464;11.926;2023-09-18T13:54:46;3.67;;;1.90;;
4521;SDS011;2273;48.464;11.926;2023-09-18T13:57:16;5.70;;;2.50;;
4521;SDS011;2273;48.464;11.926;2023-09-18T13:59:43;4.07;;;1.83;;
4521;SDS011;2273;48.464;11.926;2023-09-18T14:02:09;21.33;;;2.00;;
4521;SDS011;2273;48.464;11.926;2023-09-18T14:04:36;6.10;;;2.13;;
4521;SDS011;2273;48.464;11.926;2023-09-18T14:07:01;2.63;;;1.53;;
4521;SDS011;2273;48.464;11.926;2023-09-18T14:09:28;7.80;;;1.57;;
4521;SDS011;2273;48.464;11.926;2023-09-18T14:11:54;4.63;;;1.90;;
4521;SDS011;2273;48.464;11.926;2023-09-18T14:14:20;5.80;;;2.03;;
4521;SDS011;2273;48.464;11.926;2023-09-18T14:16:46;5.87;;;1.67;;
4521;SDS011;2273;48.464;11.926;2023-09-18T14:19:12;9.40;;;2.10;;
4521;SDS011;2273;48.464;11.926;2023-09-18T14:21:37;13.27;;;2.00;;
4521;SDS011;2273;48.464;11.926;2023-09-18T14:24:04;6.03;;;1.80;;
4521;SDS011;2273;48.464;11.926;2023-09-18T14:26:30;7.90;;;1.97;;
4521;SDS011;2273;48.464;11.926;2023-09-18T14:28:55;4.53;;;1.70;;
4521;SDS011;2273;48.464;11.926;2023-09-18T14:31:21;3.30;;;1.80;;
4521;SDS011;2273;48.464;11.926;2023-09-18T14:33:46;6.33;;;2.17;;
4521;SDS011;2273;48.464;11.926;2023-09-18T14:36:12;7.90;;;1.67;;
4521;SDS011;2273;48.464;11.926;2023-09-18T14:38:37;3.10;;;1.70;;
4521;SDS011;2273;48.464;11.926;2023-09-18T14:41:03;12.47;;;2.23;;
4521;SDS011;2273;48.464;11.926;2023-09-18T14:43:28;2.97;;;2.00;;
4521;SDS011;2273;48.464;11.926;2023-09-18T14:45:54;4.17;;;1.90;;
4521;SDS011;2273;48.464;11.926;2023-09-18T14:48:22;2.00;;;1.40;;
4521;SDS011;2273;48.464;11.926;2023-09-18T14:50:54;10.70;;;2.43;;
4521;SDS011;2273;48.464;11.926;2023-09-18T14:53:19;8.63;;;1.60;;
4521;SDS011;2273;48.464;11.926;2023-09-18T14:55:45;4.27;;;1.83;;
4521;SDS011;2273;48.464;11.926;2023-09-18T14:58:10;3.40;;;1.40;;
4521;SDS011;2273;48.464;11.926;2023-09-18T15:00:36;2.77;;;1.30;;
4521;SDS011;2273;48.464;11.926;2023-09-18T15:03:01;3.27;;;1.30;;
4521;SDS011;2273;48.464;11.926;2023-09-18T15:05:28;4.37;;;1.67;;
4521;SDS011;2273;48.464;11.926;2023-09-18T15:07:53;4.00;;;2.00;;
4521;SDS011;2273;48.464;11.926;2023-09-18T15:10:19;3.60;;;1.77;;
4521;SDS011;2273;48.464;11.926;2023-09-18T15:12:44;5.17;;;1.70;;
4521;SDS011;2273;48.464;11.926;2023-09-18T15:15:10;3.93;;;1.57;;